sensor_id;sensor_type;location;lat;lon;timestamp;pressure;altitude;pressure_sealevel;temperature;humidity
61961;BME280;47923;42.506;24.192;2023-04-12T00:00:32;94523.78;;;7.55;68.53
61961;BME280;47923;42.506;24.192;2023-04-12T00:02:57;94390.91;;;6.50;69.09
61961;BME280;47923;42.506;24.192;2023-04-12T00:05:27;94280.44;;;5.98;69.37
61961;BME280;47923;42.506;24.192;2023-04-12T00:07:53;94104.97;;;4.81;69.50
61961;BME280;47923;42.506;24.192;2023-04-12T00:10:20;94509.16;;;7.52;69.47
61961;BME280;47923;42.506;24.192;2023-04-12T00:12:46;94337.72;;;6.32;70.02
61961;BME280;47923;42.506;24.192;2023-04-12T00:15:12;94505.59;;;7.44;70.09
61961;BME280;47923;42.506;24.192;2023-04-12T00:17:38;94501.44;;;7.24;70.54
61961;BME280;47923;42.506;24.192;2023-04-12T00:20:05;94439.41;;;6.83;70.80
61961;BME280;47923;42.506;24.192;2023-04-12T00:22:37;94345.53;;;5.99;71.10
61961;BME280;47923;42.506;24.192;2023-04-12T00:25:03;94496.72;;;7.17;71.11
61961;BME280;47923;42.506;24.192;2023-04-12T00:27:29;94499.78;;;7.16;71.46
61961;BME280;47923;42.506;24.192;2023-04-12T00:29:55;94441.06;;;6.69;71.96
61961;BME280;47923;42.506;24.192;2023-04-12T00:32:20;94499.53;;;7.02;72.21
61961;BME280;47923;42.506;24.192;2023-04-12T00:34:46;94478.81;;;6.79;72.93
61961;BME280;47923;42.506;24.192;2023-04-12T00:37:11;94490.94;;;6.92;72.65
61961;BME280;47923;42.506;24.192;2023-04-12T00:39:37;94486.50;;;6.81;73.17
61961;BME280;47923;42.506;24.192;2023-04-12T00:42:03;94208.47;;;4.96;73.44
61961;BME280;47923;42.506;24.192;2023-04-12T00:44:30;94495.81;;;6.87;73.73
61961;BME280;47923;42.506;24.192;2023-04-12T00:46:57;94492.00;;;6.88;74.01
61961;BME280;47923;42.506;24.192;2023-04-12T00:49:25;94442.78;;;6.57;73.72
61961;BME280;47923;42.506;24.192;2023-04-12T00:52:04;94485.09;;;6.87;74.07
61961;BME280;47923;42.506;24.192;2023-04-12T00:54:33;94487.00;;;6.86;73.99
61961;BME280;47923;42.506;24.192;2023-04-12T00:57:02;94483.94;;;6.88;74.27
61961;BME280;47923;42.506;24.192;2023-04-12T00:59:28;94310.50;;;5.69;73.80
61961;BME280;47923;42.506;24.192;2023-04-12T01:01:55;94377.69;;;6.18;73.84
61961;BME280;47923;42.506;24.192;2023-04-12T01:04:22;94465.41;;;6.79;73.68
61961;BME280;47923;42.506;24.192;2023-04-12T01:07:04;94475.06;;;6.84;74.20
61961;BME280;47923;42.506;24.192;2023-04-12T01:14:59;94466.78;;;6.70;75.57
61961;BME280;47923;42.506;24.192;2023-04-12T01:17:29;94465.16;;;6.65;75.11
61961;BME280;47923;42.506;24.192;2023-04-12T01:20:01;94385.91;;;6.06;76.14
61961;BME280;47923;42.506;24.192;2023-04-12T01:28:34;94391.53;;;6.20;76.57
61961;BME280;47923;42.506;24.192;2023-04-12T01:31:02;94299.38;;;5.47;76.73
61961;BME280;47923;42.506;24.192;2023-04-12T01:33:29;94461.97;;;6.59;76.55
61961;BME280;47923;42.506;24.192;2023-04-12T01:36:08;94407.34;;;6.25;76.67
61961;BME280;47923;42.506;24.192;2023-04-12T01:38:35;94450.69;;;6.50;76.77
61961;BME280;47923;42.506;24.192;2023-04-12T01:41:01;94447.97;;;6.47;77.27
61961;BME280;47923;42.506;24.192;2023-04-12T01:43:27;94283.38;;;5.32;77.13
61961;BME280;47923;42.506;24.192;2023-04-12T01:45:52;94456.28;;;6.42;77.50
61961;BME280;47923;42.506;24.192;2023-04-12T01:48:18;94300.88;;;5.45;77.72
61961;BME280;47923;42.506;24.192;2023-04-12T01:53:22;94451.47;;;6.51;77.00
61961;BME280;47923;42.506;24.192;2023-04-12T01:55:57;94394.94;;;6.17;77.61
61961;BME280;47923;42.506;24.192;2023-04-12T01:58:24;94295.38;;;5.38;77.06
61961;BME280;47923;42.506;24.192;2023-04-12T02:00:50;94461.16;;;6.55;77.28
61961;BME280;47923;42.506;24.192;2023-04-12T02:03:18;94456.19;;;6.57;77.46
61961;BME280;47923;42.506;24.192;2023-04-12T02:05:46;94011.63;;;3.60;76.85
61961;BME280;47923;42.506;24.192;2023-04-12T02:08:12;94306.91;;;5.61;76.62
61961;BME280;47923;42.506;24.192;2023-04-12T02:10:38;94466.66;;;6.62;76.46
61961;BME280;47923;42.506;24.192;2023-04-12T02:13:07;94249.19;;;5.25;76.63
61961;BME280;47923;42.506;24.192;2023-04-12T02:15:32;94431.06;;;6.46;76.49
61961;BME280;47923;42.506;24.192;2023-04-12T02:17:58;94462.53;;;6.69;76.76
61961;BME280;47923;42.506;24.192;2023-04-12T02:20:24;94215.16;;;5.06;76.34
61961;BME280;47923;42.506;24.192;2023-04-12T02:22:51;94419.16;;;6.44;77.03
61961;BME280;47923;42.506;24.192;2023-04-12T02:25:16;94454.28;;;6.58;76.98
61961;BME280;47923;42.506;24.192;2023-04-12T02:27:45;94231.22;;;5.25;76.78
61961;BME280;47923;42.506;24.192;2023-04-12T02:30:11;94458.13;;;6.80;76.86
61961;BME280;47923;42.506;24.192;2023-04-12T02:32:37;94199.59;;;5.12;76.78
61961;BME280;47923;42.506;24.192;2023-04-12T02:35:13;94458.97;;;6.84;76.98
61961;BME280;47923;42.506;24.192;2023-04-12T02:37:42;94460.50;;;6.85;77.04
61961;BME280;47923;42.506;24.192;2023-04-12T02:40:08;94434.97;;;6.72;76.69
61961;BME280;47923;42.506;24.192;2023-04-12T02:42:36;94424.16;;;6.68;76.71
61961;BME280;47923;42.506;24.192;2023-04-12T02:45:03;94454.38;;;6.84;76.56
61961;BME280;47923;42.506;24.192;2023-04-12T02:47:29;94374.13;;;6.33;77.19
61961;BME280;47923;42.506;24.192;2023-04-12T02:49:55;94460.16;;;6.86;77.21
61961;BME280;47923;42.506;24.192;2023-04-12T02:52:21;94271.44;;;5.68;76.58
61961;BME280;47923;42.506;24.192;2023-04-12T02:54:48;94452.94;;;6.90;76.56
61961;BME280;47923;42.506;24.192;2023-04-12T02:57:14;94445.66;;;6.91;76.44
61961;BME280;47923;42.506;24.192;2023-04-12T02:59:40;94199.19;;;5.29;76.44
61961;BME280;47923;42.506;24.192;2023-04-12T03:02:06;94047.69;;;4.05;76.27
61961;BME280;47923;42.506;24.192;2023-04-12T03:04:32;94447.13;;;6.88;76.80
61961;BME280;47923;42.506;24.192;2023-04-12T03:06:58;94241.75;;;5.57;76.53
61961;BME280;47923;42.506;24.192;2023-04-12T03:09:23;94306.06;;;5.96;76.44
61961;BME280;47923;42.506;24.192;2023-04-12T03:11:49;94437.53;;;6.87;76.55
61961;BME280;47923;42.506;24.192;2023-04-12T03:14:15;94443.28;;;6.86;76.69
61961;BME280;47923;42.506;24.192;2023-04-12T03:16:41;94271.16;;;5.73;76.39
61961;BME280;47923;42.506;24.192;2023-04-12T03:19:07;94381.00;;;6.54;75.78
61961;BME280;47923;42.506;24.192;2023-04-12T03:21:33;94279.00;;;5.85;76.03
61961;BME280;47923;42.506;24.192;2023-04-12T03:23:58;94307.72;;;6.04;76.38
61961;BME280;47923;42.506;24.192;2023-04-12T03:26:24;94439.94;;;6.92;75.93
61961;BME280;47923;42.506;24.192;2023-04-12T03:29:01;94196.63;;;5.36;75.69
61961;BME280;47923;42.506;24.192;2023-04-12T03:31:29;94378.31;;;6.54;75.90
61961;BME280;47923;42.506;24.192;2023-04-12T03:33:55;94423.22;;;6.80;75.58
61961;BME280;47923;42.506;24.192;2023-04-12T03:36:21;94455.38;;;6.99;75.87
61961;BME280;47923;42.506;24.192;2023-04-12T03:38:47;93985.50;;;3.88;75.72
61961;BME280;47923;42.506;24.192;2023-04-12T03:41:13;94355.13;;;6.42;76.06
61961;BME280;47923;42.506;24.192;2023-04-12T03:43:39;94100.25;;;4.75;75.41
61961;BME280;47923;42.506;24.192;2023-04-12T03:46:06;94333.91;;;6.33;75.53
61961;BME280;47923;42.506;24.192;2023-04-12T03:48:32;94010.06;;;4.13;75.52
61961;BME280;47923;42.506;24.192;2023-04-12T03:50:58;94150.31;;;4.93;75.44
61961;BME280;47923;42.506;24.192;2023-04-12T03:53:32;94456.31;;;7.10;75.48
61961;BME280;47923;42.506;24.192;2023-04-12T03:55:57;94250.13;;;5.75;75.63
61961;BME280;47923;42.506;24.192;2023-04-12T03:58:23;94420.75;;;6.94;75.51
61961;BME280;47923;42.506;24.192;2023-04-12T04:00:48;94451.00;;;7.14;75.56
61961;BME280;47923;42.506;24.192;2023-04-12T04:03:14;94436.16;;;6.97;75.15
61961;BME280;47923;42.506;24.192;2023-04-12T04:05:40;94065.75;;;4.69;75.33
61961;BME280;47923;42.506;24.192;2023-04-12T04:08:06;94445.69;;;7.17;76.51
61961;BME280;47923;42.506;24.192;2023-04-12T04:10:32;94443.88;;;6.99;76.38
61961;BME280;47923;42.506;24.192;2023-04-12T04:12:58;94445.44;;;7.03;75.98
61961;BME280;47923;42.506;24.192;2023-04-12T04:15:24;94345.81;;;6.36;76.37
61961;BME280;47923;42.506;24.192;2023-04-12T04:17:50;94286.28;;;6.04;76.39
61961;BME280;47923;42.506;24.192;2023-04-12T04:20:16;94319.09;;;6.20;76.36
61961;BME280;47923;42.506;24.192;2023-04-12T04:22:43;94477.63;;;7.23;76.34
61961;BME280;47923;42.506;24.192;2023-04-12T04:25:13;94464.59;;;7.25;76.24
61961;BME280;47923;42.506;24.192;2023-04-12T04:27:42;94435.03;;;6.98;76.27
61961;BME280;47923;42.506;24.192;2023-04-12T04:30:10;94480.72;;;7.25;76.24
61961;BME280;47923;42.506;24.192;2023-04-12T04:32:38;94457.09;;;7.11;76.28
61961;BME280;47923;42.506;24.192;2023-04-12T04:35:04;94459.97;;;7.22;76.89
61961;BME280;47923;42.506;24.192;2023-04-12T04:37:30;94392.50;;;6.77;77.34
61961;BME280;47923;42.506;24.192;2023-04-12T04:39:56;94482.00;;;7.34;77.51
61961;BME280;47923;42.506;24.192;2023-04-12T04:42:22;94484.34;;;7.36;77.96
61961;BME280;47923;42.506;24.192;2023-04-12T04:44:48;94284.06;;;6.09;77.57
61961;BME280;47923;42.506;24.192;2023-04-12T04:47:16;94415.03;;;6.96;77.44
61961;BME280;47923;42.506;24.192;2023-04-12T04:49:43;94496.41;;;7.45;78.22
61961;BME280;47923;42.506;24.192;2023-04-12T04:52:08;94497.25;;;7.50;78.29
61961;BME280;47923;42.506;24.192;2023-04-12T04:54:34;94438.84;;;7.20;78.37
61961;BME280;47923;42.506;24.192;2023-04-12T04:57:00;94499.44;;;7.70;78.18
61961;BME280;47923;42.506;24.192;2023-04-12T04:59:26;94497.59;;;7.74;77.97
61961;BME280;47923;42.506;24.192;2023-04-12T05:01:51;94475.69;;;7.72;77.27
61961;BME280;47923;42.506;24.192;2023-04-12T05:04:17;94487.25;;;8.07;76.52
61961;BME280;47923;42.506;24.192;2023-04-12T05:06:44;94487.03;;;8.49;75.80
61961;BME280;47923;42.506;24.192;2023-04-12T05:09:10;94492.00;;;8.84;73.71
61961;BME280;47923;42.506;24.192;2023-04-12T05:11:35;94487.91;;;8.97;73.16
61961;BME280;47923;42.506;24.192;2023-04-12T05:14:01;94420.47;;;8.46;72.51
61961;BME280;47923;42.506;24.192;2023-04-12T05:16:27;94490.09;;;8.84;72.63
61961;BME280;47923;42.506;24.192;2023-04-12T05:18:52;94334.06;;;7.84;72.36
61961;BME280;47923;42.506;24.192;2023-04-12T05:21:18;94482.88;;;8.96;72.07
61961;BME280;47923;42.506;24.192;2023-04-12T05:23:45;94490.75;;;9.11;72.23
61961;BME280;47923;42.506;24.192;2023-04-12T05:26:10;94498.50;;;9.20;71.45
61961;BME280;47923;42.506;24.192;2023-04-12T05:28:36;94495.44;;;9.22;71.65
61961;BME280;47923;42.506;24.192;2023-04-12T05:31:02;94377.28;;;8.76;70.78
61961;BME280;47923;42.506;24.192;2023-04-12T05:33:28;94479.16;;;9.59;69.37
61961;BME280;47923;42.506;24.192;2023-04-12T05:35:53;94502.63;;;10.17;69.04
61961;BME280;47923;42.506;24.192;2023-04-12T05:38:19;94345.06;;;9.49;66.96
61961;BME280;47923;42.506;24.192;2023-04-12T05:40:44;94407.41;;;10.20;66.16
61961;BME280;47923;42.506;24.192;2023-04-12T05:43:10;94489.81;;;12.99;59.96
61961;BME280;47923;42.506;24.192;2023-04-12T05:45:40;94336.81;;;14.47;49.51
61961;BME280;47923;42.506;24.192;2023-04-12T05:48:06;94401.03;;;15.85;46.16
61961;BME280;47923;42.506;24.192;2023-04-12T05:50:32;94492.06;;;17.79;43.82
61961;BME280;47923;42.506;24.192;2023-04-12T05:52:59;94294.88;;;18.90;37.80
61961;BME280;47923;42.506;24.192;2023-04-12T05:55:26;94399.84;;;19.81;35.81
61961;BME280;47923;42.506;24.192;2023-04-12T05:57:52;94326.03;;;19.05;36.07
61961;BME280;47923;42.506;24.192;2023-04-12T06:00:19;94483.22;;;20.40;35.10
61961;BME280;47923;42.506;24.192;2023-04-12T06:02:46;94275.13;;;20.92;32.56
61961;BME280;47923;42.506;24.192;2023-04-12T06:05:11;94484.66;;;21.82;32.05
61961;BME280;47923;42.506;24.192;2023-04-12T06:07:38;94476.75;;;20.12;34.28
61961;BME280;47923;42.506;24.192;2023-04-12T06:10:05;94469.09;;;18.80;35.91
61961;BME280;47923;42.506;24.192;2023-04-12T06:12:31;94499.69;;;17.68;38.70
61961;BME280;47923;42.506;24.192;2023-04-12T06:14:57;94490.34;;;16.80;37.73
61961;BME280;47923;42.506;24.192;2023-04-12T06:17:22;94497.56;;;16.27;38.21
61961;BME280;47923;42.506;24.192;2023-04-12T06:19:48;94501.50;;;16.26;36.15
61961;BME280;47923;42.506;24.192;2023-04-12T06:22:14;94483.34;;;15.46;36.90
61961;BME280;47923;42.506;24.192;2023-04-12T06:24:39;94432.75;;;14.98;36.79
61961;BME280;47923;42.506;24.192;2023-04-12T06:27:05;94235.66;;;13.10;38.10
61961;BME280;47923;42.506;24.192;2023-04-12T06:29:30;94511.28;;;14.65;38.33
61961;BME280;47923;42.506;24.192;2023-04-12T06:31:56;94508.38;;;14.49;38.59
61961;BME280;47923;42.506;24.192;2023-04-12T06:34:21;94507.19;;;14.50;38.66
61961;BME280;47923;42.506;24.192;2023-04-12T06:36:47;94295.22;;;13.17;38.66
61961;BME280;47923;42.506;24.192;2023-04-12T06:39:12;94408.88;;;14.25;38.05
61961;BME280;47923;42.506;24.192;2023-04-12T06:41:40;94323.34;;;15.37;34.43
61961;BME280;47923;42.506;24.192;2023-04-12T06:44:08;94119.09;;;13.68;33.28
61961;BME280;47923;42.506;24.192;2023-04-12T06:46:34;94430.84;;;16.55;32.13
61961;BME280;47923;42.506;24.192;2023-04-12T06:49:00;94496.25;;;16.36;33.44
61961;BME280;47923;42.506;24.192;2023-04-12T06:51:25;94483.06;;;16.54;34.59
61961;BME280;47923;42.506;24.192;2023-04-12T06:53:52;94503.00;;;17.27;32.65
61961;BME280;47923;42.506;24.192;2023-04-12T06:56:17;94124.19;;;15.79;30.38
61961;BME280;47923;42.506;24.192;2023-04-12T06:58:43;94382.66;;;18.41;29.55
61961;BME280;47923;42.506;24.192;2023-04-12T07:01:09;94330.84;;;19.14;27.35
61961;BME280;47923;42.506;24.192;2023-04-12T07:03:35;94455.66;;;19.24;27.01
61961;BME280;47923;42.506;24.192;2023-04-12T07:06:01;94471.88;;;19.44;27.13
61961;BME280;47923;42.506;24.192;2023-04-12T07:08:28;94461.81;;;21.54;25.68
61961;BME280;47923;42.506;24.192;2023-04-12T07:10:56;94339.66;;;21.37;26.27
61961;BME280;47923;42.506;24.192;2023-04-12T07:13:21;94427.09;;;19.12;30.02
61961;BME280;47923;42.506;24.192;2023-04-12T07:15:51;94423.34;;;17.48;33.51
61961;BME280;47923;42.506;24.192;2023-04-12T07:18:16;94473.47;;;17.22;33.99
61961;BME280;47923;42.506;24.192;2023-04-12T07:20:42;94482.13;;;16.21;35.34
61961;BME280;47923;42.506;24.192;2023-04-12T07:23:07;94446.00;;;15.23;36.80
61961;BME280;47923;42.506;24.192;2023-04-12T07:25:36;94485.56;;;16.25;36.15
61961;BME280;47923;42.506;24.192;2023-04-12T07:28:02;94475.84;;;15.81;37.07
61961;BME280;47923;42.506;24.192;2023-04-12T07:30:27;94463.56;;;16.55;36.59
61961;BME280;47923;42.506;24.192;2023-04-12T07:32:53;94372.16;;;16.67;35.15
61961;BME280;47923;42.506;24.192;2023-04-12T07:35:19;94479.09;;;16.78;36.74
61961;BME280;47923;42.506;24.192;2023-04-12T07:37:46;94372.50;;;15.73;37.17
61961;BME280;47923;42.506;24.192;2023-04-12T07:40:11;94406.03;;;16.10;37.44
61961;BME280;47923;42.506;24.192;2023-04-12T07:42:37;94485.31;;;16.79;36.08
61961;BME280;47923;42.506;24.192;2023-04-12T07:45:02;94495.44;;;15.95;38.40
61961;BME280;47923;42.506;24.192;2023-04-12T07:47:28;94489.66;;;14.85;40.99
61961;BME280;47923;42.506;24.192;2023-04-12T07:49:53;94392.66;;;13.42;42.71
61961;BME280;47923;42.506;24.192;2023-04-12T07:52:19;94477.63;;;15.13;40.17
61961;BME280;47923;42.506;24.192;2023-04-12T07:54:45;94447.38;;;16.65;36.71
61961;BME280;47923;42.506;24.192;2023-04-12T07:57:11;94479.00;;;18.32;33.59
61961;BME280;47923;42.506;24.192;2023-04-12T07:59:36;94307.59;;;17.58;32.35
61961;BME280;47923;42.506;24.192;2023-04-12T08:02:02;94294.94;;;17.35;32.18
61961;BME280;47923;42.506;24.192;2023-04-12T08:04:27;94469.66;;;17.84;33.68
61961;BME280;47923;42.506;24.192;2023-04-12T08:06:54;94321.16;;;16.48;34.12
61961;BME280;47923;42.506;24.192;2023-04-12T08:09:19;94285.63;;;16.51;33.63
61961;BME280;47923;42.506;24.192;2023-04-12T08:11:45;94423.16;;;18.17;33.06
61961;BME280;47923;42.506;24.192;2023-04-12T08:14:11;94463.56;;;19.47;31.53
61961;BME280;47923;42.506;24.192;2023-04-12T08:16:37;94231.84;;;18.81;30.24
61961;BME280;47923;42.506;24.192;2023-04-12T08:19:03;94364.06;;;20.94;28.04
61961;BME280;47923;42.506;24.192;2023-04-12T08:21:28;94462.00;;;22.37;26.63
61961;BME280;47923;42.506;24.192;2023-04-12T08:23:54;94373.41;;;23.26;25.67
61961;BME280;47923;42.506;24.192;2023-04-12T08:26:20;94439.94;;;24.00;24.34
61961;BME280;47923;42.506;24.192;2023-04-12T08:28:54;94437.06;;;23.37;25.07
61961;BME280;47923;42.506;24.192;2023-04-12T08:31:21;94440.63;;;23.29;25.21
61961;BME280;47923;42.506;24.192;2023-04-12T08:33:56;94429.91;;;23.55;24.30
61961;BME280;47923;42.506;24.192;2023-04-12T08:36:24;94388.53;;;24.50;24.40
61961;BME280;47923;42.506;24.192;2023-04-12T08:38:49;94422.91;;;24.49;23.24
61961;BME280;47923;42.506;24.192;2023-04-12T08:41:17;94384.91;;;24.44;23.57
61961;BME280;47923;42.506;24.192;2023-04-12T08:43:44;94397.97;;;23.81;23.91
61961;BME280;47923;42.506;24.192;2023-04-12T08:46:12;94418.34;;;24.46;23.35
61961;BME280;47923;42.506;24.192;2023-04-12T08:48:40;94405.25;;;25.15;22.07
61961;BME280;47923;42.506;24.192;2023-04-12T08:51:10;94393.31;;;24.94;22.17
61961;BME280;47923;42.506;24.192;2023-04-12T08:53:37;94340.75;;;25.03;21.61
61961;BME280;47923;42.506;24.192;2023-04-12T08:56:03;94399.22;;;25.67;21.40
61961;BME280;47923;42.506;24.192;2023-04-12T08:58:31;94398.25;;;22.56;24.79
61961;BME280;47923;42.506;24.192;2023-04-12T09:00:58;94322.34;;;22.74;24.07
61961;BME280;47923;42.506;24.192;2023-04-12T09:03:24;94348.13;;;22.34;23.67
61961;BME280;47923;42.506;24.192;2023-04-12T09:05:50;94392.69;;;22.93;23.98
61961;BME280;47923;42.506;24.192;2023-04-12T09:08:15;94333.16;;;21.80;24.18
61961;BME280;47923;42.506;24.192;2023-04-12T09:10:41;94289.00;;;21.93;23.83
61961;BME280;47923;42.506;24.192;2023-04-12T09:13:07;94259.69;;;22.59;23.25
61961;BME280;47923;42.506;24.192;2023-04-12T09:15:33;94378.59;;;23.66;22.79
61961;BME280;47923;42.506;24.192;2023-04-12T09:18:10;94366.03;;;23.65;22.97
61961;BME280;47923;42.506;24.192;2023-04-12T09:20:36;94364.25;;;23.77;22.75
61961;BME280;47923;42.506;24.192;2023-04-12T09:23:22;94315.03;;;23.37;22.84
61961;BME280;47923;42.506;24.192;2023-04-12T09:25:50;94361.88;;;24.33;22.19
61961;BME280;47923;42.506;24.192;2023-04-12T09:28:25;94347.63;;;23.05;23.52
61961;BME280;47923;42.506;24.192;2023-04-12T09:30:55;94355.47;;;21.91;25.45
61961;BME280;47923;42.506;24.192;2023-04-12T09:33:37;94323.34;;;21.42;24.60
61961;BME280;47923;42.506;24.192;2023-04-12T09:36:04;94379.88;;;21.62;25.01
61961;BME280;47923;42.506;24.192;2023-04-12T09:38:31;94294.38;;;21.96;25.05
61961;BME280;47923;42.506;24.192;2023-04-12T09:41:14;94328.41;;;21.53;24.17
61961;BME280;47923;42.506;24.192;2023-04-12T09:43:40;94388.19;;;20.68;25.04
61961;BME280;47923;42.506;24.192;2023-04-12T09:46:11;94390.81;;;20.72;25.39
61961;BME280;47923;42.506;24.192;2023-04-12T09:48:41;94372.09;;;21.69;24.07
61961;BME280;47923;42.506;24.192;2023-04-12T09:51:12;94378.22;;;21.83;23.49
61961;BME280;47923;42.506;24.192;2023-04-12T09:53:39;94046.22;;;18.79;24.63
61961;BME280;47923;42.506;24.192;2023-04-12T09:56:08;94352.22;;;19.66;26.05
61961;BME280;47923;42.506;24.192;2023-04-12T09:58:35;94366.53;;;19.23;28.87
61961;BME280;47923;42.506;24.192;2023-04-12T10:01:01;94378.38;;;19.32;28.61
61961;BME280;47923;42.506;24.192;2023-04-12T10:03:28;94382.66;;;19.81;28.08
61961;BME280;47923;42.506;24.192;2023-04-12T10:05:54;94333.44;;;17.70;29.38
61961;BME280;47923;42.506;24.192;2023-04-12T10:08:23;94397.47;;;17.04;30.60
61961;BME280;47923;42.506;24.192;2023-04-12T10:10:52;94246.81;;;15.95;30.88
61961;BME280;47923;42.506;24.192;2023-04-12T10:13:18;94296.66;;;17.29;30.03
61961;BME280;47923;42.506;24.192;2023-04-12T10:15:48;94267.28;;;18.46;28.32
61961;BME280;47923;42.506;24.192;2023-04-12T10:18:16;94249.91;;;20.35;26.18
61961;BME280;47923;42.506;24.192;2023-04-12T10:20:42;94367.25;;;22.28;22.95
61961;BME280;47923;42.506;24.192;2023-04-12T10:23:08;94017.34;;;20.02;23.67
61961;BME280;47923;42.506;24.192;2023-04-12T10:25:37;94375.50;;;22.28;22.94
61961;BME280;47923;42.506;24.192;2023-04-12T10:28:17;94368.66;;;20.66;24.65
61961;BME280;47923;42.506;24.192;2023-04-12T10:30:44;94185.03;;;19.00;25.30
61961;BME280;47923;42.506;24.192;2023-04-12T10:33:12;94347.81;;;20.47;24.88
61961;BME280;47923;42.506;24.192;2023-04-12T10:38:13;94333.66;;;19.36;25.60
61961;BME280;47923;42.506;24.192;2023-04-12T10:41:32;94323.31;;;18.92;26.49
61961;BME280;47923;42.506;24.192;2023-04-12T10:44:23;94329.81;;;18.31;27.51
61961;BME280;47923;42.506;24.192;2023-04-12T10:46:52;94142.13;;;16.12;27.97
61961;BME280;47923;42.506;24.192;2023-04-12T10:49:18;94152.69;;;16.26;28.60
61961;BME280;47923;42.506;24.192;2023-04-12T10:54:35;94341.94;;;18.17;27.68
61961;BME280;47923;42.506;24.192;2023-04-12T10:57:01;94353.94;;;18.07;27.78
61961;BME280;47923;42.506;24.192;2023-04-12T11:02:15;94314.50;;;17.01;29.20
61961;BME280;47923;42.506;24.192;2023-04-12T11:05:06;94345.50;;;17.40;28.80
61961;BME280;47923;42.506;24.192;2023-04-12T11:07:41;94355.25;;;17.25;29.27
61961;BME280;47923;42.506;24.192;2023-04-12T11:10:13;94212.47;;;16.17;29.22
61961;BME280;47923;42.506;24.192;2023-04-12T11:12:40;93965.56;;;14.53;29.74
61961;BME280;47923;42.506;24.192;2023-04-12T11:15:06;94342.97;;;16.84;28.85
61961;BME280;47923;42.506;24.192;2023-04-12T11:17:36;94326.19;;;16.69;29.86
61961;BME280;47923;42.506;24.192;2023-04-12T11:20:01;94117.47;;;15.47;28.89
61961;BME280;47923;42.506;24.192;2023-04-12T11:22:30;94168.75;;;15.88;28.37
61961;BME280;47923;42.506;24.192;2023-04-12T11:25:00;94300.09;;;17.01;27.85
61961;BME280;47923;42.506;24.192;2023-04-12T11:27:28;94325.09;;;16.99;26.79
61961;BME280;47923;42.506;24.192;2023-04-12T11:29:55;94317.25;;;16.85;26.87
61961;BME280;47923;42.506;24.192;2023-04-12T11:32:26;94312.38;;;16.40;27.48
61961;BME280;47923;42.506;24.192;2023-04-12T11:34:53;94330.28;;;16.21;26.79
61961;BME280;47923;42.506;24.192;2023-04-12T11:37:20;94315.84;;;16.24;26.79
61961;BME280;47923;42.506;24.192;2023-04-12T11:39:51;94322.84;;;16.06;27.15
61961;BME280;47923;42.506;24.192;2023-04-12T11:42:19;94315.16;;;16.37;27.16
61961;BME280;47923;42.506;24.192;2023-04-12T11:44:46;94322.66;;;16.33;27.49
61961;BME280;47923;42.506;24.192;2023-04-12T11:47:19;94213.78;;;15.53;26.67
61961;BME280;47923;42.506;24.192;2023-04-12T11:49:47;94230.09;;;15.53;26.72
61961;BME280;47923;42.506;24.192;2023-04-12T11:52:14;94342.47;;;16.17;26.44
61961;BME280;47923;42.506;24.192;2023-04-12T11:54:50;94328.41;;;16.18;25.95
61961;BME280;47923;42.506;24.192;2023-04-12T11:57:20;94308.91;;;16.20;25.64
61961;BME280;47923;42.506;24.192;2023-04-12T11:59:47;94303.88;;;16.38;25.76
61961;BME280;47923;42.506;24.192;2023-04-12T12:02:14;94284.78;;;16.02;26.03
61961;BME280;47923;42.506;24.192;2023-04-12T12:04:46;93997.13;;;13.80;25.40
61961;BME280;47923;42.506;24.192;2023-04-12T12:07:13;94306.28;;;15.77;25.73
61961;BME280;47923;42.506;24.192;2023-04-12T12:09:40;94231.66;;;14.91;26.67
61961;BME280;47923;42.506;24.192;2023-04-12T12:12:08;94093.91;;;13.67;26.71
61961;BME280;47923;42.506;24.192;2023-04-12T12:14:34;94161.53;;;14.32;27.14
61961;BME280;47923;42.506;24.192;2023-04-12T12:17:01;94250.25;;;15.16;26.41
61961;BME280;47923;42.506;24.192;2023-04-12T12:19:36;94248.94;;;15.24;26.30
61961;BME280;47923;42.506;24.192;2023-04-12T12:22:19;94320.09;;;15.86;25.20
61961;BME280;47923;42.506;24.192;2023-04-12T12:27:19;94263.59;;;16.10;24.35
61961;BME280;47923;42.506;24.192;2023-04-12T12:29:48;94326.47;;;16.55;24.76
61961;BME280;47923;42.506;24.192;2023-04-12T12:32:16;94313.66;;;16.72;24.25
61961;BME280;47923;42.506;24.192;2023-04-12T12:34:52;94317.25;;;16.85;24.69
61961;BME280;47923;42.506;24.192;2023-04-12T12:37:28;94326.22;;;16.66;23.09
61961;BME280;47923;42.506;24.192;2023-04-12T12:42:26;94198.97;;;15.34;23.54
61961;BME280;47923;42.506;24.192;2023-04-12T12:44:51;94305.25;;;16.10;23.37
61961;BME280;47923;42.506;24.192;2023-04-12T12:47:17;94309.78;;;16.17;23.64
61961;BME280;47923;42.506;24.192;2023-04-12T12:49:42;94259.81;;;15.67;23.37
61961;BME280;47923;42.506;24.192;2023-04-12T12:52:09;94154.72;;;14.71;23.87
61961;BME280;47923;42.506;24.192;2023-04-12T12:54:34;94311.59;;;15.64;22.41
61961;BME280;47923;42.506;24.192;2023-04-12T12:57:00;94317.03;;;15.64;22.47
61961;BME280;47923;42.506;24.192;2023-04-12T12:59:26;94331.22;;;15.75;22.38
61961;BME280;47923;42.506;24.192;2023-04-12T13:01:51;94252.16;;;15.39;23.49
61961;BME280;47923;42.506;24.192;2023-04-12T13:04:16;94260.59;;;15.25;24.63
61961;BME280;47923;42.506;24.192;2023-04-12T13:06:42;94327.13;;;15.43;25.01
61961;BME280;47923;42.506;24.192;2023-04-12T13:09:07;94287.81;;;15.01;24.72
61961;BME280;47923;42.506;24.192;2023-04-12T13:11:33;94181.91;;;14.47;24.04
61961;BME280;47923;42.506;24.192;2023-04-12T13:13:59;94332.22;;;15.18;24.53
61961;BME280;47923;42.506;24.192;2023-04-12T13:16:24;94238.19;;;14.47;23.91
61961;BME280;47923;42.506;24.192;2023-04-12T13:18:49;94148.66;;;13.89;23.36
61961;BME280;47923;42.506;24.192;2023-04-12T13:21:15;94190.22;;;14.09;24.52
61961;BME280;47923;42.506;24.192;2023-04-12T13:23:40;94225.69;;;14.26;24.44